Observation data for O'Donnell on 04/08/2021      Previous  Date  Next       Current Mesonet Observations  Soil Data  Daily Summary Page  Observations in Plain Language
KOES 080500Z 02002KT 09/M07 A299 RMK A01 T00941071  RH  030%=      5-min Rain = 0
KOES 080505Z 06001KT 10/M07 A299 RMK A01 T00991071  RH  030%=      5-min Rain = 0
KOES 080510Z 09001KT 11/M07 A299 RMK A01 T01071071  RH  028%=      5-min Rain = 0
KOES 080515Z 11002KT 10/M07 A299 RMK A01 T01031070  RH  029%=      5-min Rain = 0
KOES 080520Z 14003KT 11/M07 A299 RMK A01 T01051071  RH  028%=      5-min Rain = 0
KOES 080525Z 14006KT 10/M07 A299 RMK A01 T01041071  RH  029%=      5-min Rain = 0
KOES 080530Z 12003KT 10/M07 A299 RMK A01 T01041065  RH  030%=      5-min Rain = 0
KOES 080535Z 11002KT 10/M07 A299 RMK A01 T00971065  RH  031%=      5-min Rain = 0
KOES 080540Z 12005KT 11/M06 A299 RMK A01 T01091062  RH  030%=      5-min Rain = 0
KOES 080545Z 12005KT 12/M06 A299 RMK A01 T01231060  RH  027%=      5-min Rain = 0
KOES 080550Z 13005KT 13/M06 A299 RMK A01 T01281061  RH  026%=      5-min Rain = 0
KOES 080555Z 12004KT 13/M06 A299 RMK A01 T01261063  RH  026%=      5-min Rain = 0
KOES 080600Z 10003KT 12/M07 A299 RMK A01 T01221067  RH  026%=      5-min Rain = 0
KOES 080605Z 11003KT 11/M08 A299 RMK A01 T01091077  RH  026%=      5-min Rain = 0
KOES 080610Z 13004KT 11/M07 A299 RMK A01 T01081073  RH  027%=      5-min Rain = 0
KOES 080615Z 14005KT 11/M07 A299 RMK A01 T01141069  RH  027%=      5-min Rain = 0
KOES 080620Z 12005KT 12/M07 A299 RMK A01 T01201069  RH  026%=      5-min Rain = 0
KOES 080625Z 12006KT 12/M07 A299 RMK A01 T01151070  RH  027%=      5-min Rain = 0
KOES 080630Z 15003KT 11/M07 A299 RMK A01 T01081070  RH  028%=      5-min Rain = 0
KOES 080635Z 31002KT 10/M06 A299 RMK A01 T01011064  RH  031%=      5-min Rain = 0
KOES 080640Z 33002KT 13/M07 A299 RMK A01 T01311065  RH  025%=      5-min Rain = 0
KOES 080645Z 12008G14KT 14/M06 A299 RMK A01 T01421064  RH  023%=      5-min Rain = 0
KOES 080650Z 12013KT 15/M06 A2989 RMK A01 T01501062  RH  023%=      5-min Rain = 0
KOES 080655Z 30010G17KT 15/M06 A2991 RMK A01 T01451060  RH  024%=      5-min Rain = 0
KOES 080700Z 09007G22KT 17/M06 A2991 RMK A01 T01661060  RH  021%=      5-min Rain = 0
KOES 080705Z 13013G18KT 18/M06 A2989 RMK A01 T01761060  RH  020%=      5-min Rain = 0
KOES 080710Z 14012KT 17/M06 A2989 RMK A01 T01701060  RH  020%=      5-min Rain = 0
KOES 080715Z 14011KT 16/M06 A2989 RMK A01 T01641061  RH  021%=      5-min Rain = 0
KOES 080720Z 13011KT 16/M06 A2989 RMK A01 T01611062  RH  021%=      5-min Rain = 0
KOES 080725Z 13008KT 16/M06 A2989 RMK A01 T01611062  RH  021%=      5-min Rain = 0
KOES 080730Z 13008KT 16/M06 A299 RMK A01 T01581062  RH  021%=      5-min Rain = 0
KOES 080735Z 13008KT 16/M06 A299 RMK A01 T01561063  RH  022%=      5-min Rain = 0
KOES 080740Z 13008KT 15/M06 A299 RMK A01 T01511064  RH  022%=      5-min Rain = 0
KOES 080745Z 12007KT 15/M06 A299 RMK A01 T01461063  RH  023%=      5-min Rain = 0
KOES 080750Z 12008KT 14/M06 A299 RMK A01 T01371063  RH  024%=      5-min Rain = 0
KOES 080755Z 12010KT 13/M06 A299 RMK A01 T01301063  RH  026%=      5-min Rain = 0
KOES 080800Z 13009KT 14/M06 A299 RMK A01 T01351063  RH  025%=      5-min Rain = 0
KOES 080805Z 12009KT 14/M06 A299 RMK A01 T01371063  RH  024%=      5-min Rain = 0
KOES 080810Z 12010KT 14/M06 A2989 RMK A01 T01381062  RH  024%=      5-min Rain = 0
KOES 080815Z 12010KT 15/M06 A2989 RMK A01 T01461062  RH  023%=      5-min Rain = 0
KOES 080820Z 12007KT 15/M06 A2989 RMK A01 T01491062  RH  023%=      5-min Rain = 0
KOES 080825Z 09005KT 14/M06 A299 RMK A01 T01431061  RH  024%=      5-min Rain = 0
KOES 080830Z 04008KT 12/M07 A2989 RMK A01 T01201065  RH  027%=      5-min Rain = 0
KOES 080835Z 04009KT 12/M07 A299 RMK A01 T01161065  RH  028%=      5-min Rain = 0
KOES 080840Z 02009KT 10/M07 A299 RMK A01 T01041072  RH  028%=      5-min Rain = 0
KOES 080845Z 04010KT 10/M07 A2989 RMK A01 T00971072  RH  030%=      5-min Rain = 0
KOES 080850Z 04009KT 10/M07 A299 RMK A01 T00971070  RH  030%=      5-min Rain = 0
KOES 080855Z 01007KT 09/M07 A299 RMK A01 T00921072  RH  031%=      5-min Rain = 0
KOES 080900Z 02007KT 09/M07 A299 RMK A01 T00871070  RH  032%=      5-min Rain = 0
KOES 080905Z 03009KT 09/M07 A299 RMK A01 T00851071  RH  032%=      5-min Rain = 0
KOES 080910Z 01008KT 08/M07 A299 RMK A01 T00801072  RH  033%=      5-min Rain = 0
KOES 080915Z 02008KT 08/M07 A2989 RMK A01 T00791070  RH  034%=      5-min Rain = 0
KOES 080920Z 03007KT 08/M07 A2989 RMK A01 T00771071  RH  034%=      5-min Rain = 0
KOES 080925Z 05008KT 07/M07 A2989 RMK A01 T00741073  RH  034%=      5-min Rain = 0
KOES 080930Z 06009KT 07/M07 A2988 RMK A01 T00741072  RH  035%=      5-min Rain = 0
KOES 080935Z 32007KT 07/M07 A2989 RMK A01 T00721068  RH  036%=      5-min Rain = 0
KOES 080940Z 02007KT 08/M06 A2989 RMK A01 T00841063  RH  035%=      5-min Rain = 0
KOES 080945Z 05008KT 09/M06 A2988 RMK A01 T00891061  RH  034%=      5-min Rain = 0
KOES 080950Z 06008KT 09/M06 A2988 RMK A01 T00861062  RH  035%=      5-min Rain = 0
KOES 080955Z 06007KT 08/M06 A2988 RMK A01 T00821062  RH  035%=      5-min Rain = 0
KOES 081000Z 06007KT 08/M06 A2988 RMK A01 T00791063  RH  036%=      5-min Rain = 0
KOES 081005Z 05007KT 08/M06 A2988 RMK A01 T00771063  RH  036%=      5-min Rain = 0
KOES 081010Z 04007KT 07/M07 A2988 RMK A01 T00681069  RH  037%=      5-min Rain = 0
KOES 081015Z 05009KT 07/M07 A2988 RMK A01 T00701065  RH  037%=      5-min Rain = 0
KOES 081020Z 05009KT 08/M06 A2988 RMK A01 T00811057  RH  037%=      5-min Rain = 0
KOES 081025Z 05007KT 09/M06 A2988 RMK A01 T00861057  RH  036%=      5-min Rain = 0
KOES 081030Z 02005KT 07/M07 A2988 RMK A01 T00721066  RH  037%=      5-min Rain = 0
KOES 081035Z 03006KT 06/M07 A2987 RMK A01 T00631069  RH  038%=      5-min Rain = 0
KOES 081040Z 04007KT 06/M07 A2987 RMK A01 T00611066  RH  040%=      5-min Rain = 0
KOES 081045Z 05008KT 06/M06 A2987 RMK A01 T00641064  RH  040%=      5-min Rain = 0
KOES 081050Z 04007KT 07/M06 A2987 RMK A01 T00661063  RH  039%=      5-min Rain = 0
KOES 081055Z 03007KT 06/M06 A2987 RMK A01 T00641063  RH  040%=      5-min Rain = 0
KOES 081100Z 04007KT 06/M06 A2987 RMK A01 T00621064  RH  040%=      5-min Rain = 0
KOES 081105Z 04008KT 06/M07 A2987 RMK A01 T00581066  RH  041%=      5-min Rain = 0
KOES 081110Z 04008KT 06/M07 A2987 RMK A01 T00561065  RH  041%=      5-min Rain = 0
KOES 081115Z 04007KT 06/M06 A2987 RMK A01 T00571064  RH  041%=      5-min Rain = 0
KOES 081120Z 04007KT 06/M06 A2987 RMK A01 T00571062  RH  042%=      5-min Rain = 0
KOES 081125Z 04007KT 06/M06 A2987 RMK A01 T00581059  RH  043%=      5-min Rain = 0
KOES 081130Z 05007KT 06/M06 A2987 RMK A01 T00571061  RH  043%=      5-min Rain = 0
KOES 081135Z 05007KT 05/M06 A2987 RMK A01 T00531063  RH  043%=      5-min Rain = 0
KOES 081140Z 05006KT 05/M07 A2987 RMK A01 T00511066  RH  042%=      5-min Rain = 0
KOES 081145Z 05005KT 05/M07 A2987 RMK A01 T00481068  RH  043%=      5-min Rain = 0
KOES 081150Z 04006KT 05/M07 A2987 RMK A01 T00471067  RH  043%=      5-min Rain = 0
KOES 081155Z 05006KT 05/M07 A2987 RMK A01 T00481065  RH  044%=      5-min Rain = 0
KOES 081200Z 05006KT 05/M07 A2987 RMK A01 T00461068  RH  044%=      5-min Rain = 0
KOES 081205Z 05005KT 05/M06 A2987 RMK A01 T00471064  RH  044%=      5-min Rain = 0
KOES 081210Z 05005KT 05/M07 A2987 RMK A01 T00471066  RH  044%=      5-min Rain = 0
KOES 081215Z 05006KT 04/M07 A2987 RMK A01 T00441066  RH  045%=      5-min Rain = 0
KOES 081220Z 05006KT 05/M06 A2987 RMK A01 T00491061  RH  045%=      5-min Rain = 0
KOES 081225Z 04007KT 05/M06 A2987 RMK A01 T00521060  RH  044%=      5-min Rain = 0
KOES 081230Z 04008KT 05/M06 A2988 RMK A01 T00511060  RH  045%=      5-min Rain = 0
KOES 081235Z 05007KT 05/M06 A2988 RMK A01 T00521059  RH  045%=      5-min Rain = 0
KOES 081240Z 04006KT 05/M06 A2988 RMK A01 T00531058  RH  045%=      5-min Rain = 0
KOES 081245Z 05006KT 06/M06 A2988 RMK A01 T00551055  RH  045%=      5-min Rain = 0
KOES 081250Z 04006KT 06/M05 A2988 RMK A01 T00571054  RH  045%=      5-min Rain = 0
KOES 081255Z 03005KT 06/M05 A2988 RMK A01 T00571053  RH  045%=      5-min Rain = 0
KOES 081300Z 04005KT 06/M05 A2988 RMK A01 T00571053  RH  045%=      5-min Rain = 0
KOES 081305Z 05005KT 06/M05 A2988 RMK A01 T00561054  RH  045%=      5-min Rain = 0
KOES 081310Z 05006KT 06/M06 A2988 RMK A01 T00561056  RH  045%=      5-min Rain = 0
KOES 081315Z 06004KT 06/M05 A2988 RMK A01 T00561053  RH  045%=      5-min Rain = 0
KOES 081320Z 06004KT 06/M05 A2988 RMK A01 T00621049  RH  045%=      5-min Rain = 0
KOES 081325Z 07004KT 07/M04 A2988 RMK A01 T00741043  RH  044%=      5-min Rain = 0
KOES 081330Z 08003KT 09/M03 A2988 RMK A01 T00881032  RH  043%=      5-min Rain = 0
KOES 081335Z 07004KT 09/M03 A2989 RMK A01 T00941028  RH  042%=      5-min Rain = 0
KOES 081340Z 04005KT 10/M03 A2989 RMK A01 T00981026  RH  042%=      5-min Rain = 0
KOES 081345Z 05005KT 10/M02 A2989 RMK A01 T01031024  RH  041%=      5-min Rain = 0
KOES 081350Z 06006KT 11/M02 A2989 RMK A01 T01081022  RH  041%=      5-min Rain = 0
KOES 081355Z 05006KT 11/M02 A2989 RMK A01 T01131020  RH  040%=      5-min Rain = 0
KOES 081400Z 04006KT 12/M02 A299 RMK A01 T01181019  RH  039%=      5-min Rain = 0
KOES 081405Z 04008KT 12/M02 A299 RMK A01 T01241020  RH  037%=      5-min Rain = 0
KOES 081410Z 03008KT 13/M02 A2991 RMK A01 T01281021  RH  036%=      5-min Rain = 0
KOES 081415Z 02009KT 13/M02 A2991 RMK A01 T01321020  RH  035%=      5-min Rain = 0
KOES 081420Z 02009KT 13/M02 A2991 RMK A01 T01331020  RH  035%=      5-min Rain = 0
KOES 081425Z 02009KT 14/M02 A299 RMK A01 T01351017  RH  035%=      5-min Rain = 0
KOES 081430Z 03009KT 14/M02 A299 RMK A01 T01371017  RH  035%=      5-min Rain = 0
KOES 081435Z 03009KT 14/M02 A299 RMK A01 T01421017  RH  034%=      5-min Rain = 0
KOES 081440Z 02008KT 14/M02 A2991 RMK A01 T01441016  RH  033%=      5-min Rain = 0
KOES 081445Z 02008KT 15/M02 A299 RMK A01 T01451017  RH  033%=      5-min Rain = 0
KOES 081450Z 03007KT 15/M02 A299 RMK A01 T01491017  RH  032%=      5-min Rain = 0
KOES 081455Z 04006KT 15/M02 A299 RMK A01 T01531017  RH  031%=      5-min Rain = 0
KOES 081500Z 05005KT 16/M02 A299 RMK A01 T01571017  RH  031%=      5-min Rain = 0
KOES 081505Z 05005KT 16/M02 A299 RMK A01 T01611020  RH  029%=      5-min Rain = 0
KOES 081510Z 06005KT 16/M02 A299 RMK A01 T01621021  RH  029%=      5-min Rain = 0
KOES 081515Z 06005KT 16/M02 A299 RMK A01 T01641023  RH  028%=      5-min Rain = 0
KOES 081520Z 09003KT 17/M03 A2991 RMK A01 T01671026  RH  027%=      5-min Rain = 0
KOES 081525Z 08004KT 17/M02 A2991 RMK A01 T01701021  RH  027%=      5-min Rain = 0
KOES 081530Z 05003KT 17/M02 A299 RMK A01 T01721021  RH  027%=      5-min Rain = 0
KOES 081535Z 07001KT 18/M02 A299 RMK A01 T01781018  RH  027%=      5-min Rain = 0
KOES 081540Z 29002KT 18/M02 A299 RMK A01 T01821023  RH  025%=      5-min Rain = 0
KOES 081545Z 23001KT 18/M02 A299 RMK A01 T01781024  RH  025%=      5-min Rain = 0
KOES 081550Z 31002KT 18/M02 A299 RMK A01 T01821024  RH  025%=      5-min Rain = 0
KOES 081555Z 25001KT 18/M02 A299 RMK A01 T01841024  RH  024%=      5-min Rain = 0
KOES 081600Z 30002KT 19/M02 A299 RMK A01 T01861024  RH  024%=      5-min Rain = 0
KOES 081605Z 32004KT 18/M03 A299 RMK A01 T01841026  RH  024%=      5-min Rain = 0
KOES 081610Z 32003KT 19/M03 A299 RMK A01 T01861025  RH  024%=      5-min Rain = 0
KOES 081615Z 28002KT 19/M03 A299 RMK A01 T01851027  RH  024%=      5-min Rain = 0
KOES 081620Z 25003KT 19/M03 A299 RMK A01 T01921026  RH  023%=      5-min Rain = 0
KOES 081625Z 28004KT 20/M03 A299 RMK A01 T01961030  RH  022%=      5-min Rain = 0
KOES 081630Z 28002KT 20/M03 A299 RMK A01 T01981028  RH  022%=      5-min Rain = 0
KOES 081635Z 24004KT 20/M03 A299 RMK A01 T01961029  RH  022%=      5-min Rain = 0
KOES 081640Z 31003KT 20/M03 A299 RMK A01 T01971029  RH  022%=      5-min Rain = 0
KOES 081645Z 31004KT 20/M03 A299 RMK A01 T02011030  RH  021%=      5-min Rain = 0
KOES 081650Z 31005KT 20/M03 A299 RMK A01 T02001030  RH  021%=      5-min Rain = 0
KOES 081655Z 29003KT 21/M03 A299 RMK A01 T02061029  RH  021%=      5-min Rain = 0
KOES 081700Z 32005KT 21/M03 A299 RMK A01 T02081031  RH  020%=      5-min Rain = 0
KOES 081705Z 30003G8KT 21/M03 A2989 RMK A01 T02061032  RH  020%=      5-min Rain = 0
KOES 081710Z 32004KT 21/M04 A2989 RMK A01 T02121035  RH  019%=      5-min Rain = 0
KOES 081715Z 31006KT 22/M04 A2989 RMK A01 T02191037  RH  018%=      5-min Rain = 0
KOES 081720Z 30007KT 22/M04 A2989 RMK A01 T02191036  RH  018%=      5-min Rain = 0
KOES 081725Z 29006KT 22/M03 A2988 RMK A01 T02191034  RH  018%=      5-min Rain = 0
KOES 081730Z 30005KT 22/M04 A2988 RMK A01 T02191036  RH  018%=      5-min Rain = 0
KOES 081735Z 32004KT 22/M04 A2988 RMK A01 T02171036  RH  018%=      5-min Rain = 0
KOES 081740Z 30006KT 22/M03 A2988 RMK A01 T02221033  RH  018%=      5-min Rain = 0
KOES 081745Z 32005KT 23/M03 A2988 RMK A01 T02251033  RH  018%=      5-min Rain = 0
KOES 081750Z 30006KT 23/M03 A2988 RMK A01 T02341033  RH  017%=      5-min Rain = 0
KOES 081755Z 27004KT 24/M04 A2987 RMK A01 T02351036  RH  016%=      5-min Rain = 0
KOES 081800Z 30004G9KT 23/M04 A2987 RMK A01 T02321038  RH  016%=      5-min Rain = 0
KOES 081805Z 30006KT 24/M04 A2987 RMK A01 T02371035  RH  016%=      5-min Rain = 0
KOES 081810Z 30004KT 24/M03 A2987 RMK A01 T02371033  RH  016%=      5-min Rain = 0
KOES 081815Z 28003KT 24/M03 A2986 RMK A01 T02361034  RH  016%=      5-min Rain = 0
KOES 081820Z 34002G7KT 24/M03 A2986 RMK A01 T02431033  RH  016%=      5-min Rain = 0
KOES 081825Z 00005KT 24/M04 A2986 RMK A01 T02411037  RH  016%=      5-min Rain = 0
KOES 081830Z 01004G9KT 24/M04 A2986 RMK A01 T02421037  RH  015%=      5-min Rain = 0
KOES 081835Z 30003KT 25/M04 A2985 RMK A01 T02481038  RH  015%=      5-min Rain = 0
KOES 081840Z 30007KT 25/M04 A2985 RMK A01 T02501044  RH  014%=      5-min Rain = 0
KOES 081845Z 30007KT 25/M04 A2985 RMK A01 T02541043  RH  014%=      5-min Rain = 0
KOES 081850Z 30005G10KT 25/M04 A2985 RMK A01 T02521042  RH  014%=      5-min Rain = 0
KOES 081855Z 32005KT 25/M04 A2984 RMK A01 T02541044  RH  014%=      5-min Rain = 0
KOES 081900Z 30004KT 25/M05 A2984 RMK A01 T02521050  RH  013%=      5-min Rain = 0
KOES 081905Z 24004KT 25/M05 A2984 RMK A01 T02531046  RH  014%=      5-min Rain = 0
KOES 081910Z 33003KT 26/M05 A2983 RMK A01 T02591050  RH  013%=      5-min Rain = 0
KOES 081915Z 30005KT 26/M06 A2983 RMK A01 T02611055  RH  012%=      5-min Rain = 0
KOES 081920Z 27006G11KT 27/M06 A2983 RMK A01 T02651058  RH  011%=      5-min Rain = 0
KOES 081925Z 30006KT 27/M06 A2982 RMK A01 T02651057  RH  012%=      5-min Rain = 0
KOES 081930Z 29007KT 27/M05 A2982 RMK A01 T02671053  RH  012%=      5-min Rain = 0
KOES 081935Z 25003KT 27/M06 A2982 RMK A01 T02681058  RH  011%=      5-min Rain = 0
KOES 081940Z 31002KT 26/M06 A2982 RMK A01 T02621055  RH  012%=      5-min Rain = 0
KOES 081945Z 27003KT 27/M05 A2982 RMK A01 T02691054  RH  012%=      5-min Rain = 0
KOES 081950Z 28006KT 27/M06 A2981 RMK A01 T02741059  RH  011%=      5-min Rain = 0
KOES 081955Z 30007KT 27/M06 A2981 RMK A01 T02711059  RH  011%=      5-min Rain = 0
KOES 082000Z 25009G15KT 28/M07 A298 RMK A01 T02771068  RH  010%=      5-min Rain = 0
KOES 082005Z 27012KT 28/M07 A298 RMK A01 T02831068  RH  010%=      5-min Rain = 0
KOES 082010Z 27004G11KT 28/M07 A298 RMK A01 T02791074  RH  009%=      5-min Rain = 0
KOES 082015Z 27005G11KT 28/M07 A298 RMK A01 T02791073  RH  009%=      5-min Rain = 0
KOES 082020Z 28009KT 28/M08 A298 RMK A01 T02821075  RH  009%=      5-min Rain = 0
KOES 082025Z 28008KT 28/M08 A2979 RMK A01 T02811076  RH  009%=      5-min Rain = 0
KOES 082030Z 27007G14KT 28/M07 A2979 RMK A01 T02841074  RH  009%=      5-min Rain = 0
KOES 082035Z 26007G13KT 29/M08 A2979 RMK A01 T02861076  RH  009%=      5-min Rain = 0
KOES 082040Z 24006G12KT 28/M08 A2979 RMK A01 T02831077  RH  009%=      5-min Rain = 0
KOES 082045Z 26009G14KT 29/M08 A2979 RMK A01 T02861076  RH  009%=      5-min Rain = 0
KOES 082050Z 29010G17KT 29/M08 A2978 RMK A01 T02871076  RH  009%=      5-min Rain = 0
KOES 082055Z 30008G13KT 28/M08 A2978 RMK A01 T02831078  RH  009%=      5-min Rain = 0
KOES 082100Z 30010KT 29/M07 A2978 RMK A01 T02861071  RH  009%=      5-min Rain = 0
KOES 082105Z 28005KT 28/M08 A2978 RMK A01 T02831076  RH  009%=      5-min Rain = 0
KOES 082110Z 27006KT 29/M07 A2977 RMK A01 T02851073  RH  009%=      5-min Rain = 0
KOES 082115Z 30006KT 29/M07 A2977 RMK A01 T02861073  RH  009%=      5-min Rain = 0
KOES 082120Z 28008G13KT 29/M08 A2976 RMK A01 T02901077  RH  009%=      5-min Rain = 0
KOES 082125Z 28010KT 29/M08 A2976 RMK A01 T02941083  RH  008%=      5-min Rain = 0
KOES 082130Z 28009G15KT 29/M08 A2976 RMK A01 T02941082  RH  008%=      5-min Rain = 0
KOES 082135Z 28009KT 29/M08 A2975 RMK A01 T02931083  RH  008%=      5-min Rain = 0
KOES 082140Z 29008G13KT 29/M08 A2975 RMK A01 T02891084  RH  008%=      5-min Rain = 0
KOES 082145Z 27005G10KT 29/M09 A2974 RMK A01 T02901086  RH  008%=      5-min Rain = 0
KOES 082150Z 26003KT 30/M08 A2974 RMK A01 T02951084  RH  008%=      5-min Rain = 0
KOES 082155Z 32002KT 29/M09 A2974 RMK A01 T02911087  RH  008%=      5-min Rain = 0
KOES 082200Z 25006KT 29/M09 A2974 RMK A01 T02941086  RH  008%=      5-min Rain = 0
KOES 082205Z 20005G10KT 29/M09 A2973 RMK A01 T02931088  RH  008%=      5-min Rain = 0
KOES 082210Z 18004KT 29/M09 A2973 RMK A01 T02871089  RH  008%=      5-min Rain = 0
KOES 082215Z 19004KT 28/M09 A2973 RMK A01 T02841091  RH  008%=      5-min Rain = 0
KOES 082220Z 16005KT 29/M09 A2972 RMK A01 T02871089  RH  008%=      5-min Rain = 0
KOES 082225Z 15005KT 29/M09 A2972 RMK A01 T02911089  RH  008%=      5-min Rain = 0
KOES 082230Z 15004KT 29/M09 A2972 RMK A01 T02911090  RH  008%=      5-min Rain = 0
KOES 082235Z 16004KT 29/M09 A2972 RMK A01 T02911091  RH  008%=      5-min Rain = 0
KOES 082240Z 17002KT 29/M09 A2972 RMK A01 T02881092  RH  008%=      5-min Rain = 0
KOES 082245Z 13002KT 29/M09 A2972 RMK A01 T02881091  RH  008%=      5-min Rain = 0
KOES 082250Z 20004KT 29/M09 A2972 RMK A01 T02891087  RH  008%=      5-min Rain = 0
KOES 082255Z 22004KT 29/M09 A2971 RMK A01 T02911088  RH  008%=      5-min Rain = 0
KOES 082300Z 23006G11KT 29/M09 A2971 RMK A01 T02921090  RH  008%=      5-min Rain = 0
KOES 082305Z 24009G14KT 29/M09 A2971 RMK A01 T02941089  RH  008%=      5-min Rain = 0
KOES 082310Z 26015KT 30/M09 A2971 RMK A01 T02961092  RH  007%=      5-min Rain = 0
KOES 082315Z 25016G22KT 30/M09 A2971 RMK A01 T02991091  RH  007%=      5-min Rain = 0
KOES 082320Z 24016G22KT 30/M09 A2971 RMK A01 T03001091  RH  007%=      5-min Rain = 0
KOES 082325Z 23015G20KT 30/M09 A2971 RMK A01 T02991089  RH  007%=      5-min Rain = 0
KOES 082330Z 23014G21KT 30/M09 A2971 RMK A01 T02991089  RH  007%=      5-min Rain = 0
KOES 082335Z 24015KT 30/M09 A2971 RMK A01 T02991091  RH  007%=      5-min Rain = 0
KOES 082340Z 24017KT 30/M09 A2971 RMK A01 T03001090  RH  007%=      5-min Rain = 0
KOES 082345Z 24016KT 30/M09 A2971 RMK A01 T02981091  RH  007%=      5-min Rain = 0
KOES 082350Z 25018G24KT 30/M09 A297 RMK A01 T02971092  RH  007%=      5-min Rain = 0
KOES 082355Z 25016G21KT 30/M09 A297 RMK A01 T02961093  RH  007%=      5-min Rain = 0
KOES 090000Z 24014KT 30/M09 A297 RMK A01 T02961093  RH  007%=      5-min Rain = 0
KOES 090005Z 24014KT 30/M09 A297 RMK A01 T02951093  RH  007%=      5-min Rain = 0
KOES 090010Z 25011KT 29/M09 A297 RMK A01 T02941092  RH  007%=      5-min Rain = 0
KOES 090015Z 25013G18KT 29/M09 A297 RMK A01 T02931092  RH  007%=      5-min Rain = 0
KOES 090020Z 26014KT 29/M09 A297 RMK A01 T02921092  RH  007%=      5-min Rain = 0
KOES 090025Z 25012G17KT 29/M09 A297 RMK A01 T02901093  RH  008%=      5-min Rain = 0
KOES 090030Z 25012KT 29/M09 A297 RMK A01 T02871094  RH  008%=      5-min Rain = 0
KOES 090035Z 26011KT 29/M09 A297 RMK A01 T02851094  RH  008%=      5-min Rain = 0
KOES 090040Z 25010KT 28/M09 A297 RMK A01 T02831093  RH  008%=      5-min Rain = 0
KOES 090045Z 25009KT 28/M09 A297 RMK A01 T02801094  RH  008%=      5-min Rain = 0
KOES 090050Z 24007KT 28/M09 A297 RMK A01 T02751094  RH  008%=      5-min Rain = 0
KOES 090055Z 24007KT 27/M09 A297 RMK A01 T02681092  RH  009%=      5-min Rain = 0
KOES 090100Z 24007KT 27/M09 A2969 RMK A01 T02651093  RH  009%=      5-min Rain = 0
KOES 090105Z 24007KT 26/M09 A2969 RMK A01 T02571092  RH  009%=      5-min Rain = 0
KOES 090110Z 23007KT 25/M09 A2969 RMK A01 T02521091  RH  010%=      5-min Rain = 0
KOES 090115Z 24007KT 25/M09 A2969 RMK A01 T02471092  RH  010%=      5-min Rain = 0
KOES 090120Z 24007KT 24/M09 A2969 RMK A01 T02421094  RH  010%=      5-min Rain = 0
KOES 090125Z 23006KT 23/M09 A2969 RMK A01 T02341093  RH  011%=      5-min Rain = 0
KOES 090130Z 23006KT 22/M09 A2969 RMK A01 T02241089  RH  012%=      5-min Rain = 0
KOES 090135Z 24006KT 22/M10 A2969 RMK A01 T02201095  RH  011%=      5-min Rain = 0
KOES 090140Z 23005KT 22/M09 A2969 RMK A01 T02171091  RH  012%=      5-min Rain = 0
KOES 090145Z 23005KT 21/M09 A2969 RMK A01 T02111091  RH  012%=      5-min Rain = 0
KOES 090150Z 23006KT 21/M09 A2969 RMK A01 T02081093  RH  012%=      5-min Rain = 0
KOES 090155Z 22005KT 21/M10 A2969 RMK A01 T02081096  RH  012%=      5-min Rain = 0
KOES 090200Z 21005KT 21/M09 A2969 RMK A01 T02101092  RH  012%=      5-min Rain = 0
KOES 090205Z 21004KT 21/M09 A2969 RMK A01 T02101089  RH  013%=      5-min Rain = 0
KOES 090210Z 21004KT 21/M09 A2969 RMK A01 T02091086  RH  013%=      5-min Rain = 0
KOES 090215Z 21005KT 21/M09 A2969 RMK A01 T02121091  RH  012%=      5-min Rain = 0
KOES 090220Z 21005KT 21/M09 A2969 RMK A01 T02111094  RH  012%=      5-min Rain = 0
KOES 090225Z 20004KT 21/M09 A2969 RMK A01 T02091092  RH  012%=      5-min Rain = 0
KOES 090230Z 20004KT 20/M09 A2969 RMK A01 T02041088  RH  013%=      5-min Rain = 0
KOES 090235Z 20005KT 20/M09 A2969 RMK A01 T02021094  RH  013%=      5-min Rain = 0
KOES 090240Z 20005KT 20/M10 A2969 RMK A01 T01971097  RH  013%=      5-min Rain = 0
KOES 090245Z 20005KT 19/M10 A2969 RMK A01 T01941099  RH  013%=      5-min Rain = 0
KOES 090250Z 20004KT 19/M10 A2969 RMK A01 T01931100  RH  013%=      5-min Rain = 0
KOES 090255Z 20005KT 20/M10 A2969 RMK A01 T01951099  RH  013%=      5-min Rain = 0
KOES 090300Z 19005KT 20/M10 A2969 RMK A01 T01961101  RH  012%=      5-min Rain = 0
KOES 090305Z 19005KT 20/M10 A2969 RMK A01 T01951103  RH  012%=      5-min Rain = 0
KOES 090310Z 20005KT 20/M10 A2969 RMK A01 T01961100  RH  013%=      5-min Rain = 0
KOES 090315Z 19005KT 19/M10 A2969 RMK A01 T01911098  RH  013%=      5-min Rain = 0
KOES 090320Z 19005KT 19/M10 A2969 RMK A01 T01881098  RH  013%=      5-min Rain = 0
KOES 090325Z 19006KT 19/M10 A2969 RMK A01 T01891100  RH  013%=      5-min Rain = 0
KOES 090330Z 19005KT 19/M10 A2969 RMK A01 T01911101  RH  013%=      5-min Rain = 0
KOES 090335Z 19005KT 20/M10 A2969 RMK A01 T01951102  RH  012%=      5-min Rain = 0
KOES 090340Z 18005KT 19/M10 A2969 RMK A01 T01911101  RH  013%=      5-min Rain = 0
KOES 090345Z 19005KT 19/M10 A2969 RMK A01 T01901100  RH  013%=      5-min Rain = 0
KOES 090350Z 19004KT 18/M10 A2969 RMK A01 T01831100  RH  014%=      5-min Rain = 0
KOES 090355Z 18004KT 18/M10 A2968 RMK A01 T01771100  RH  014%=      5-min Rain = 0
KOES 090400Z 18004KT 18/M10 A2968 RMK A01 T01821099  RH  014%=      5-min Rain = 0
KOES 090405Z 18004KT 18/M10 A2968 RMK A01 T01821098  RH  014%=      5-min Rain = 0
KOES 090410Z 17004KT 18/M10 A2968 RMK A01 T01811098  RH  014%=      5-min Rain = 0
KOES 090415Z 17005KT 19/M10 A2968 RMK A01 T01851100  RH  013%=      5-min Rain = 0
KOES 090420Z 18005KT 19/M10 A2968 RMK A01 T01881101  RH  013%=      5-min Rain = 0
KOES 090425Z 17005KT 19/M10 A2968 RMK A01 T01871101  RH  013%=      5-min Rain = 0
KOES 090430Z 17004KT 19/M11 A2967 RMK A01 T01871105  RH  013%=      5-min Rain = 0
KOES 090435Z 16004KT 19/M11 A2967 RMK A01 T01931105  RH  012%=      5-min Rain = 0
KOES 090440Z 17004KT 19/M11 A2967 RMK A01 T01941106  RH  012%=      5-min Rain = 0
KOES 090445Z 17005KT 19/M11 A2967 RMK A01 T01921109  RH  012%=      5-min Rain = 0
KOES 090450Z 16005KT 19/M11 A2967 RMK A01 T01931109  RH  012%=      5-min Rain = 0
KOES 090455Z 17005KT 20/M11 A2967 RMK A01 T01951112  RH  011%=      5-min Rain = 0

Page generated in 0.0089 seconds.